sensor_id;sensor_type;location;lat;lon;timestamp;temperature;humidity
47162;DHT22;32921;53.256;8.198;2022-11-20T00:01:16;0.70;99.90
47162;DHT22;32921;53.256;8.198;2022-11-20T00:03:41;0.80;99.90
47162;DHT22;32921;53.256;8.198;2022-11-20T00:06:12;0.70;99.90
47162;DHT22;32921;53.256;8.198;2022-11-20T00:08:37;0.70;99.90
47162;DHT22;32921;53.256;8.198;2022-11-20T00:11:08;0.70;99.90
47162;DHT22;32921;53.256;8.198;2022-11-20T00:13:34;0.60;99.90
47162;DHT22;32921;53.256;8.198;2022-11-20T00:16:01;0.70;99.90
47162;DHT22;32921;53.256;8.198;2022-11-20T00:18:28;0.70;99.90
47162;DHT22;32921;53.256;8.198;2022-11-20T00:20:59;0.70;99.90
47162;DHT22;32921;53.256;8.198;2022-11-20T00:23:25;0.70;99.90
47162;DHT22;32921;53.256;8.198;2022-11-20T00:25:50;0.70;99.90
47162;DHT22;32921;53.256;8.198;2022-11-20T00:28:16;0.60;99.90
47162;DHT22;32921;53.256;8.198;2022-11-20T00:30:41;0.60;99.90
47162;DHT22;32921;53.256;8.198;2022-11-20T00:33:07;0.60;99.90
47162;DHT22;32921;53.256;8.198;2022-11-20T00:35:32;0.60;99.90
47162;DHT22;32921;53.256;8.198;2022-11-20T00:37:58;0.60;99.90
47162;DHT22;32921;53.256;8.198;2022-11-20T00:40:23;0.60;99.90
47162;DHT22;32921;53.256;8.198;2022-11-20T00:42:49;0.70;99.90
47162;DHT22;32921;53.256;8.198;2022-11-20T00:45:14;0.70;99.90
47162;DHT22;32921;53.256;8.198;2022-11-20T00:47:40;0.70;99.90
47162;DHT22;32921;53.256;8.198;2022-11-20T00:50:06;0.80;99.90
47162;DHT22;32921;53.256;8.198;2022-11-20T00:52:31;0.70;99.90
47162;DHT22;32921;53.256;8.198;2022-11-20T00:54:57;0.70;99.90
47162;DHT22;32921;53.256;8.198;2022-11-20T00:57:23;0.60;99.90
47162;DHT22;32921;53.256;8.198;2022-11-20T00:59:48;0.60;99.90
47162;DHT22;32921;53.256;8.198;2022-11-20T01:02:14;0.70;99.90
47162;DHT22;32921;53.256;8.198;2022-11-20T01:04:42;0.60;99.90
47162;DHT22;32921;53.256;8.198;2022-11-20T01:07:07;0.60;99.90
47162;DHT22;32921;53.256;8.198;2022-11-20T01:09:33;0.60;99.90
47162;DHT22;32921;53.256;8.198;2022-11-20T01:11:58;0.60;99.90
47162;DHT22;32921;53.256;8.198;2022-11-20T01:14:24;0.60;99.90
47162;DHT22;32921;53.256;8.198;2022-11-20T01:16:51;0.60;99.90
47162;DHT22;32921;53.256;8.198;2022-11-20T01:19:21;0.60;99.90
47162;DHT22;32921;53.256;8.198;2022-11-20T01:21:50;0.60;99.90
47162;DHT22;32921;53.256;8.198;2022-11-20T01:24:17;0.60;99.90
47162;DHT22;32921;53.256;8.198;2022-11-20T01:26:44;0.70;99.90
47162;DHT22;32921;53.256;8.198;2022-11-20T01:29:17;0.60;99.90
47162;DHT22;32921;53.256;8.198;2022-11-20T01:31:43;0.70;99.90
47162;DHT22;32921;53.256;8.198;2022-11-20T01:34:17;0.60;99.90
47162;DHT22;32921;53.256;8.198;2022-11-20T01:36:43;0.60;99.90
47162;DHT22;32921;53.256;8.198;2022-11-20T01:39:18;0.70;99.90
47162;DHT22;32921;53.256;8.198;2022-11-20T01:41:44;0.70;99.90
47162;DHT22;32921;53.256;8.198;2022-11-20T01:44:48;0.80;99.90
47162;DHT22;32921;53.256;8.198;2022-11-20T01:47:17;0.80;99.90
47162;DHT22;32921;53.256;8.198;2022-11-20T01:49:50;0.70;99.90
47162;DHT22;32921;53.256;8.198;2022-11-20T01:52:23;0.70;99.90
47162;DHT22;32921;53.256;8.198;2022-11-20T01:57:20;0.70;99.90
47162;DHT22;32921;53.256;8.198;2022-11-20T01:59:53;0.70;99.90
47162;DHT22;32921;53.256;8.198;2022-11-20T02:02:22;0.70;99.90
47162;DHT22;32921;53.256;8.198;2022-11-20T02:04:51;0.60;99.90
47162;DHT22;32921;53.256;8.198;2022-11-20T02:07:20;0.60;99.90
47162;DHT22;32921;53.256;8.198;2022-11-20T02:09:46;0.60;99.90
47162;DHT22;32921;53.256;8.198;2022-11-20T02:12:12;0.60;99.90
47162;DHT22;32921;53.256;8.198;2022-11-20T02:14:57;0.60;99.90
47162;DHT22;32921;53.256;8.198;2022-11-20T02:17:24;0.70;99.90
47162;DHT22;32921;53.256;8.198;2022-11-20T02:19:51;0.70;99.90
47162;DHT22;32921;53.256;8.198;2022-11-20T02:22:27;0.70;99.90
47162;DHT22;32921;53.256;8.198;2022-11-20T02:24:54;0.70;99.90
47162;DHT22;32921;53.256;8.198;2022-11-20T02:27:20;0.70;99.90
47162;DHT22;32921;53.256;8.198;2022-11-20T02:30:04;0.70;99.90
47162;DHT22;32921;53.256;8.198;2022-11-20T02:32:33;0.70;99.90
47162;DHT22;32921;53.256;8.198;2022-11-20T02:35:51;0.70;99.90
47162;DHT22;32921;53.256;8.198;2022-11-20T02:37:54;0.70;99.90
47162;DHT22;32921;53.256;8.198;2022-11-20T02:40:21;0.60;99.90
47162;DHT22;32921;53.256;8.198;2022-11-20T02:42:47;0.60;99.90
47162;DHT22;32921;53.256;8.198;2022-11-20T02:45:12;0.60;99.90
47162;DHT22;32921;53.256;8.198;2022-11-20T02:47:38;0.80;99.90
47162;DHT22;32921;53.256;8.198;2022-11-20T02:50:05;0.80;99.90
47162;DHT22;32921;53.256;8.198;2022-11-20T02:52:31;0.80;99.90
47162;DHT22;32921;53.256;8.198;2022-11-20T02:55:04;0.90;99.90
47162;DHT22;32921;53.256;8.198;2022-11-20T02:57:29;0.90;99.90
47162;DHT22;32921;53.256;8.198;2022-11-20T02:59:55;0.90;99.90
47162;DHT22;32921;53.256;8.198;2022-11-20T03:02:21;0.80;99.90
47162;DHT22;32921;53.256;8.198;2022-11-20T03:04:46;0.80;99.90
47162;DHT22;32921;53.256;8.198;2022-11-20T03:07:12;0.80;99.90
47162;DHT22;32921;53.256;8.198;2022-11-20T03:09:37;0.70;99.90
47162;DHT22;32921;53.256;8.198;2022-11-20T03:12:03;0.70;99.90
47162;DHT22;32921;53.256;8.198;2022-11-20T03:14:29;0.70;99.90
47162;DHT22;32921;53.256;8.198;2022-11-20T03:16:55;0.70;99.90
47162;DHT22;32921;53.256;8.198;2022-11-20T03:19:21;0.70;99.90
47162;DHT22;32921;53.256;8.198;2022-11-20T03:21:46;0.70;99.90
47162;DHT22;32921;53.256;8.198;2022-11-20T03:24:12;0.70;99.90
47162;DHT22;32921;53.256;8.198;2022-11-20T03:26:39;0.80;99.90
47162;DHT22;32921;53.256;8.198;2022-11-20T03:29:04;0.80;99.90
47162;DHT22;32921;53.256;8.198;2022-11-20T03:31:36;0.90;99.90
47162;DHT22;32921;53.256;8.198;2022-11-20T03:34:03;0.90;99.90
47162;DHT22;32921;53.256;8.198;2022-11-20T03:36:29;0.90;99.90
47162;DHT22;32921;53.256;8.198;2022-11-20T03:38:55;1.00;99.90
47162;DHT22;32921;53.256;8.198;2022-11-20T03:41:26;1.00;99.90
47162;DHT22;32921;53.256;8.198;2022-11-20T03:43:54;1.00;99.90
47162;DHT22;32921;53.256;8.198;2022-11-20T03:46:20;0.90;99.90
47162;DHT22;32921;53.256;8.198;2022-11-20T03:48:46;0.90;99.90
47162;DHT22;32921;53.256;8.198;2022-11-20T03:53:40;0.80;99.90
47162;DHT22;32921;53.256;8.198;2022-11-20T03:56:06;0.80;99.90
47162;DHT22;32921;53.256;8.198;2022-11-20T03:58:33;0.90;99.90
47162;DHT22;32921;53.256;8.198;2022-11-20T04:01:05;0.90;99.90
47162;DHT22;32921;53.256;8.198;2022-11-20T04:03:31;0.80;99.90
47162;DHT22;32921;53.256;8.198;2022-11-20T04:06:05;0.90;99.90
47162;DHT22;32921;53.256;8.198;2022-11-20T04:08:31;0.80;99.90
47162;DHT22;32921;53.256;8.198;2022-11-20T04:10:56;0.80;99.90
47162;DHT22;32921;53.256;8.198;2022-11-20T04:13:32;0.80;99.90
47162;DHT22;32921;53.256;8.198;2022-11-20T04:15:58;0.80;99.90
47162;DHT22;32921;53.256;8.198;2022-11-20T04:18:23;0.80;99.90
47162;DHT22;32921;53.256;8.198;2022-11-20T04:20:49;0.80;99.90
47162;DHT22;32921;53.256;8.198;2022-11-20T04:23:14;0.80;99.90
47162;DHT22;32921;53.256;8.198;2022-11-20T04:25:40;0.80;99.90
47162;DHT22;32921;53.256;8.198;2022-11-20T04:28:05;0.80;99.90
47162;DHT22;32921;53.256;8.198;2022-11-20T04:30:31;0.80;99.90
47162;DHT22;32921;53.256;8.198;2022-11-20T04:32:56;0.80;99.90
47162;DHT22;32921;53.256;8.198;2022-11-20T04:35:22;0.80;99.90
47162;DHT22;32921;53.256;8.198;2022-11-20T04:37:47;0.80;99.90
47162;DHT22;32921;53.256;8.198;2022-11-20T04:40:16;0.80;99.90
47162;DHT22;32921;53.256;8.198;2022-11-20T04:42:41;0.80;99.90
47162;DHT22;32921;53.256;8.198;2022-11-20T04:45:07;0.80;99.90
47162;DHT22;32921;53.256;8.198;2022-11-20T04:47:33;0.80;99.90
47162;DHT22;32921;53.256;8.198;2022-11-20T04:49:58;0.70;99.90
47162;DHT22;32921;53.256;8.198;2022-11-20T04:52:24;0.70;99.90
47162;DHT22;32921;53.256;8.198;2022-11-20T04:54:49;0.80;99.90
47162;DHT22;32921;53.256;8.198;2022-11-20T04:57:18;0.90;99.90
47162;DHT22;32921;53.256;8.198;2022-11-20T04:59:43;0.80;99.90
47162;DHT22;32921;53.256;8.198;2022-11-20T05:02:10;0.80;99.90
47162;DHT22;32921;53.256;8.198;2022-11-20T05:04:35;0.70;99.90
47162;DHT22;32921;53.256;8.198;2022-11-20T05:07:01;0.70;99.90
47162;DHT22;32921;53.256;8.198;2022-11-20T05:09:27;0.70;99.90
47162;DHT22;32921;53.256;8.198;2022-11-20T05:11:52;0.70;99.90
47162;DHT22;32921;53.256;8.198;2022-11-20T05:14:18;0.70;99.90
47162;DHT22;32921;53.256;8.198;2022-11-20T05:16:43;0.70;99.90
47162;DHT22;32921;53.256;8.198;2022-11-20T05:19:09;0.70;99.90
47162;DHT22;32921;53.256;8.198;2022-11-20T05:21:34;0.70;99.90
47162;DHT22;32921;53.256;8.198;2022-11-20T05:24:00;0.80;99.90
47162;DHT22;32921;53.256;8.198;2022-11-20T05:26:25;0.90;99.90
47162;DHT22;32921;53.256;8.198;2022-11-20T05:28:51;1.00;99.90
47162;DHT22;32921;53.256;8.198;2022-11-20T05:31:20;1.00;99.90
47162;DHT22;32921;53.256;8.198;2022-11-20T05:33:46;0.90;99.90
47162;DHT22;32921;53.256;8.198;2022-11-20T05:36:13;0.90;99.90
47162;DHT22;32921;53.256;8.198;2022-11-20T05:38:39;0.90;99.90
47162;DHT22;32921;53.256;8.198;2022-11-20T05:41:16;0.80;99.90
47162;DHT22;32921;53.256;8.198;2022-11-20T05:43:44;0.80;99.90
47162;DHT22;32921;53.256;8.198;2022-11-20T05:46:20;0.90;99.90
47162;DHT22;32921;53.256;8.198;2022-11-20T05:48:46;1.00;99.90
47162;DHT22;32921;53.256;8.198;2022-11-20T05:51:14;0.90;99.90
47162;DHT22;32921;53.256;8.198;2022-11-20T05:53:41;0.80;99.90
47162;DHT22;32921;53.256;8.198;2022-11-20T05:56:10;0.70;99.90
47162;DHT22;32921;53.256;8.198;2022-11-20T05:58:37;0.60;99.90
47162;DHT22;32921;53.256;8.198;2022-11-20T06:03:32;0.50;99.90
47162;DHT22;32921;53.256;8.198;2022-11-20T06:06:02;0.50;99.90
47162;DHT22;32921;53.256;8.198;2022-11-20T06:08:28;0.50;99.90
47162;DHT22;32921;53.256;8.198;2022-11-20T06:10:54;0.40;99.90
47162;DHT22;32921;53.256;8.198;2022-11-20T06:13:19;0.40;99.90
47162;DHT22;32921;53.256;8.198;2022-11-20T06:15:49;0.50;99.90
47162;DHT22;32921;53.256;8.198;2022-11-20T06:18:15;0.60;99.90
47162;DHT22;32921;53.256;8.198;2022-11-20T06:20:40;0.50;99.90
47162;DHT22;32921;53.256;8.198;2022-11-20T06:23:06;0.40;99.90
47162;DHT22;32921;53.256;8.198;2022-11-20T06:25:31;0.40;99.90
47162;DHT22;32921;53.256;8.198;2022-11-20T06:27:57;0.30;99.90
47162;DHT22;32921;53.256;8.198;2022-11-20T06:30:22;0.50;99.90
47162;DHT22;32921;53.256;8.198;2022-11-20T06:32:48;0.50;99.90
47162;DHT22;32921;53.256;8.198;2022-11-20T06:35:14;0.60;99.90
47162;DHT22;32921;53.256;8.198;2022-11-20T06:37:39;0.60;99.90
47162;DHT22;32921;53.256;8.198;2022-11-20T06:40:05;0.50;99.90
47162;DHT22;32921;53.256;8.198;2022-11-20T06:42:32;0.40;99.90
47162;DHT22;32921;53.256;8.198;2022-11-20T06:44:57;0.20;99.90
47162;DHT22;32921;53.256;8.198;2022-11-20T06:47:23;0.40;99.90
47162;DHT22;32921;53.256;8.198;2022-11-20T06:49:48;0.40;99.90
47162;DHT22;32921;53.256;8.198;2022-11-20T06:52:14;0.40;99.90
47162;DHT22;32921;53.256;8.198;2022-11-20T06:54:39;0.50;99.90
47162;DHT22;32921;53.256;8.198;2022-11-20T06:57:05;0.50;99.90
47162;DHT22;32921;53.256;8.198;2022-11-20T06:59:31;0.40;99.90
47162;DHT22;32921;53.256;8.198;2022-11-20T07:01:56;0.30;99.90
47162;DHT22;32921;53.256;8.198;2022-11-20T07:04:22;0.20;99.90
47162;DHT22;32921;53.256;8.198;2022-11-20T07:06:48;0.10;99.90
47162;DHT22;32921;53.256;8.198;2022-11-20T07:09:13;0.00;99.90
47162;DHT22;32921;53.256;8.198;2022-11-20T07:11:39;0.20;99.90
47162;DHT22;32921;53.256;8.198;2022-11-20T07:14:04;0.20;99.90
47162;DHT22;32921;53.256;8.198;2022-11-20T07:16:30;0.00;99.90
47162;DHT22;32921;53.256;8.198;2022-11-20T07:18:56;-0.10;99.90
47162;DHT22;32921;53.256;8.198;2022-11-20T07:21:21;-0.10;99.90
47162;DHT22;32921;53.256;8.198;2022-11-20T07:23:47;-0.20;99.90
47162;DHT22;32921;53.256;8.198;2022-11-20T07:26:12;0.10;99.90
47162;DHT22;32921;53.256;8.198;2022-11-20T07:28:38;0.20;99.90
47162;DHT22;32921;53.256;8.198;2022-11-20T07:31:04;0.30;99.90
47162;DHT22;32921;53.256;8.198;2022-11-20T07:33:32;0.40;99.90
47162;DHT22;32921;53.256;8.198;2022-11-20T07:35:59;0.50;99.90
47162;DHT22;32921;53.256;8.198;2022-11-20T07:38:25;0.60;99.90
47162;DHT22;32921;53.256;8.198;2022-11-20T07:40:54;0.80;99.90
47162;DHT22;32921;53.256;8.198;2022-11-20T07:43:20;0.70;99.90
47162;DHT22;32921;53.256;8.198;2022-11-20T07:45:46;0.70;99.90
47162;DHT22;32921;53.256;8.198;2022-11-20T07:48:11;0.70;99.90
47162;DHT22;32921;53.256;8.198;2022-11-20T07:50:37;0.70;99.90
47162;DHT22;32921;53.256;8.198;2022-11-20T07:53:04;0.70;99.90
47162;DHT22;32921;53.256;8.198;2022-11-20T07:55:30;0.80;99.90
47162;DHT22;32921;53.256;8.198;2022-11-20T07:57:56;0.90;99.90
47162;DHT22;32921;53.256;8.198;2022-11-20T08:00:25;1.00;99.90
47162;DHT22;32921;53.256;8.198;2022-11-20T08:02:52;1.30;99.90
47162;DHT22;32921;53.256;8.198;2022-11-20T08:05:17;1.30;99.90
47162;DHT22;32921;53.256;8.198;2022-11-20T08:07:44;1.20;99.90
47162;DHT22;32921;53.256;8.198;2022-11-20T08:10:13;1.30;99.90
47162;DHT22;32921;53.256;8.198;2022-11-20T08:12:49;1.20;99.90
47162;DHT22;32921;53.256;8.198;2022-11-20T08:15:34;1.10;99.90
47162;DHT22;32921;53.256;8.198;2022-11-20T08:18:10;1.20;99.90
47162;DHT22;32921;53.256;8.198;2022-11-20T08:20:37;1.20;99.90
47162;DHT22;32921;53.256;8.198;2022-11-20T08:23:06;1.30;99.90
47162;DHT22;32921;53.256;8.198;2022-11-20T08:25:33;1.30;99.90
47162;DHT22;32921;53.256;8.198;2022-11-20T08:28:00;1.30;99.90
47162;DHT22;32921;53.256;8.198;2022-11-20T08:30:26;1.20;99.90
47162;DHT22;32921;53.256;8.198;2022-11-20T08:32:52;1.30;99.90
47162;DHT22;32921;53.256;8.198;2022-11-20T08:35:18;1.30;99.90
47162;DHT22;32921;53.256;8.198;2022-11-20T08:37:46;1.20;99.90
47162;DHT22;32921;53.256;8.198;2022-11-20T08:40:12;1.30;99.90
47162;DHT22;32921;53.256;8.198;2022-11-20T08:42:46;1.30;99.90
47162;DHT22;32921;53.256;8.198;2022-11-20T08:45:11;1.20;99.90
47162;DHT22;32921;53.256;8.198;2022-11-20T08:47:37;1.10;99.90
47162;DHT22;32921;53.256;8.198;2022-11-20T08:50:03;1.10;99.90
47162;DHT22;32921;53.256;8.198;2022-11-20T08:52:28;1.00;99.90
47162;DHT22;32921;53.256;8.198;2022-11-20T08:54:54;1.00;99.90
47162;DHT22;32921;53.256;8.198;2022-11-20T08:57:19;1.10;99.90
47162;DHT22;32921;53.256;8.198;2022-11-20T08:59:45;1.10;99.90
47162;DHT22;32921;53.256;8.198;2022-11-20T09:02:11;1.20;99.90
47162;DHT22;32921;53.256;8.198;2022-11-20T09:04:37;1.30;99.90
47162;DHT22;32921;53.256;8.198;2022-11-20T09:07:02;1.40;99.90
47162;DHT22;32921;53.256;8.198;2022-11-20T09:09:28;1.50;99.90
47162;DHT22;32921;53.256;8.198;2022-11-20T09:11:54;1.50;99.90
47162;DHT22;32921;53.256;8.198;2022-11-20T09:14:19;1.50;99.90
47162;DHT22;32921;53.256;8.198;2022-11-20T09:16:46;1.60;99.90
47162;DHT22;32921;53.256;8.198;2022-11-20T09:19:12;1.70;99.90
47162;DHT22;32921;53.256;8.198;2022-11-20T09:21:37;1.80;99.90
47162;DHT22;32921;53.256;8.198;2022-11-20T09:24:04;1.80;99.90
47162;DHT22;32921;53.256;8.198;2022-11-20T09:26:30;1.80;99.90
47162;DHT22;32921;53.256;8.198;2022-11-20T09:28:55;2.00;99.90
47162;DHT22;32921;53.256;8.198;2022-11-20T09:31:25;2.10;99.90
47162;DHT22;32921;53.256;8.198;2022-11-20T09:33:51;2.20;99.90
47162;DHT22;32921;53.256;8.198;2022-11-20T09:36:17;2.10;99.90
47162;DHT22;32921;53.256;8.198;2022-11-20T09:38:45;2.20;99.90
47162;DHT22;32921;53.256;8.198;2022-11-20T09:43:59;2.10;99.90
47162;DHT22;32921;53.256;8.198;2022-11-20T09:46:48;2.30;99.90
47162;DHT22;32921;53.256;8.198;2022-11-20T09:52:43;2.30;99.90
47162;DHT22;32921;53.256;8.198;2022-11-20T09:55:12;2.40;99.90
47162;DHT22;32921;53.256;8.198;2022-11-20T09:57:44;2.60;99.90
47162;DHT22;32921;53.256;8.198;2022-11-20T10:00:13;2.60;99.90
47162;DHT22;32921;53.256;8.198;2022-11-20T10:05:34;2.70;99.90
47162;DHT22;32921;53.256;8.198;2022-11-20T10:10:49;2.60;99.90
47162;DHT22;32921;53.256;8.198;2022-11-20T10:16:47;2.70;99.90
47162;DHT22;32921;53.256;8.198;2022-11-20T10:30:44;3.30;99.90
47162;DHT22;32921;53.256;8.198;2022-11-20T10:33:22;3.50;99.90
47162;DHT22;32921;53.256;8.198;2022-11-20T10:35:54;3.50;99.90
47162;DHT22;32921;53.256;8.198;2022-11-20T10:38:36;3.80;99.90
47162;DHT22;32921;53.256;8.198;2022-11-20T10:41:05;4.10;99.90
47162;DHT22;32921;53.256;8.198;2022-11-20T10:43:52;4.20;99.90
47162;DHT22;32921;53.256;8.198;2022-11-20T10:46:21;4.00;99.90
47162;DHT22;32921;53.256;8.198;2022-11-20T10:48:50;4.10;99.90
47162;DHT22;32921;53.256;8.198;2022-11-20T10:52:07;4.30;99.90
47162;DHT22;32921;53.256;8.198;2022-11-20T10:56:50;4.00;99.90
47162;DHT22;32921;53.256;8.198;2022-11-20T11:01:47;3.50;99.90
47162;DHT22;32921;53.256;8.198;2022-11-20T11:04:37;3.50;99.90
47162;DHT22;32921;53.256;8.198;2022-11-20T11:07:17;3.50;99.90
47162;DHT22;32921;53.256;8.198;2022-11-20T11:09:52;3.50;99.90
47162;DHT22;32921;53.256;8.198;2022-11-20T11:12:19;3.60;99.90
47162;DHT22;32921;53.256;8.198;2022-11-20T11:14:50;3.70;99.90
47162;DHT22;32921;53.256;8.198;2022-11-20T11:17:31;3.90;99.90
47162;DHT22;32921;53.256;8.198;2022-11-20T11:20:13;3.80;99.90
47162;DHT22;32921;53.256;8.198;2022-11-20T11:22:52;3.80;99.90
47162;DHT22;32921;53.256;8.198;2022-11-20T11:25:24;4.00;99.90
47162;DHT22;32921;53.256;8.198;2022-11-20T11:27:51;4.60;99.90
47162;DHT22;32921;53.256;8.198;2022-11-20T11:30:19;4.80;99.90
47162;DHT22;32921;53.256;8.198;2022-11-20T11:32:46;4.80;99.90
47162;DHT22;32921;53.256;8.198;2022-11-20T11:35:27;4.80;99.90
47162;DHT22;32921;53.256;8.198;2022-11-20T11:38:00;4.70;99.90
47162;DHT22;32921;53.256;8.198;2022-11-20T11:40:30;4.60;99.90
47162;DHT22;32921;53.256;8.198;2022-11-20T11:42:59;4.40;99.90
47162;DHT22;32921;53.256;8.198;2022-11-20T11:45:27;4.20;99.90
47162;DHT22;32921;53.256;8.198;2022-11-20T11:47:54;4.10;99.90
47162;DHT22;32921;53.256;8.198;2022-11-20T11:50:28;4.10;99.90
47162;DHT22;32921;53.256;8.198;2022-11-20T11:53:09;4.00;99.90
47162;DHT22;32921;53.256;8.198;2022-11-20T12:00:55;3.50;99.90
47162;DHT22;32921;53.256;8.198;2022-11-20T12:03:29;3.30;99.90
47162;DHT22;32921;53.256;8.198;2022-11-20T12:06:11;3.30;99.90
47162;DHT22;32921;53.256;8.198;2022-11-20T12:08:42;3.30;99.90
47162;DHT22;32921;53.256;8.198;2022-11-20T12:11:37;3.30;99.90
47162;DHT22;32921;53.256;8.198;2022-11-20T12:16:38;3.40;99.90
47162;DHT22;32921;53.256;8.198;2022-11-20T12:19:10;3.50;99.90
47162;DHT22;32921;53.256;8.198;2022-11-20T12:21:58;3.50;99.90
47162;DHT22;32921;53.256;8.198;2022-11-20T12:30:32;3.20;99.90
47162;DHT22;32921;53.256;8.198;2022-11-20T12:35:58;2.80;99.90
47162;DHT22;32921;53.256;8.198;2022-11-20T12:38:52;2.80;99.90
47162;DHT22;32921;53.256;8.198;2022-11-20T12:52:57;3.40;99.90
47162;DHT22;32921;53.256;8.198;2022-11-20T12:58:19;3.70;99.90
47162;DHT22;32921;53.256;8.198;2022-11-20T13:01:20;3.80;99.90
47162;DHT22;32921;53.256;8.198;2022-11-20T13:04:07;3.80;99.90
47162;DHT22;32921;53.256;8.198;2022-11-20T13:06:34;3.90;99.90
47162;DHT22;32921;53.256;8.198;2022-11-20T13:09:00;3.90;99.90
47162;DHT22;32921;53.256;8.198;2022-11-20T13:16:58;3.90;99.90
47162;DHT22;32921;53.256;8.198;2022-11-20T13:19:25;3.80;99.90
47162;DHT22;32921;53.256;8.198;2022-11-20T13:21:52;4.00;99.90
47162;DHT22;32921;53.256;8.198;2022-11-20T13:24:23;4.20;99.90
47162;DHT22;32921;53.256;8.198;2022-11-20T13:29:35;4.20;99.90
47162;DHT22;32921;53.256;8.198;2022-11-20T13:34:55;4.20;99.90
47162;DHT22;32921;53.256;8.198;2022-11-20T13:37:39;4.10;99.90
47162;DHT22;32921;53.256;8.198;2022-11-20T13:42:40;4.00;99.90
47162;DHT22;32921;53.256;8.198;2022-11-20T13:45:20;4.10;99.90
47162;DHT22;32921;53.256;8.198;2022-11-20T13:47:50;4.20;99.90
47162;DHT22;32921;53.256;8.198;2022-11-20T13:50:16;4.20;99.90
47162;DHT22;32921;53.256;8.198;2022-11-20T13:52:55;4.30;99.90
47162;DHT22;32921;53.256;8.198;2022-11-20T13:55:34;4.20;99.90
47162;DHT22;32921;53.256;8.198;2022-11-20T13:58:19;4.20;99.90
47162;DHT22;32921;53.256;8.198;2022-11-20T14:00:58;4.30;99.90
47162;DHT22;32921;53.256;8.198;2022-11-20T14:03:29;4.30;99.90
47162;DHT22;32921;53.256;8.198;2022-11-20T14:05:59;4.20;99.90
47162;DHT22;32921;53.256;8.198;2022-11-20T14:08:47;4.10;99.90
47162;DHT22;32921;53.256;8.198;2022-11-20T14:11:17;3.90;99.90
47162;DHT22;32921;53.256;8.198;2022-11-20T14:14:01;3.90;99.90
47162;DHT22;32921;53.256;8.198;2022-11-20T14:16:33;3.70;99.90
47162;DHT22;32921;53.256;8.198;2022-11-20T14:21:48;3.30;99.90
47162;DHT22;32921;53.256;8.198;2022-11-20T14:24:18;3.20;99.90
47162;DHT22;32921;53.256;8.198;2022-11-20T14:26:45;3.00;99.90
47162;DHT22;32921;53.256;8.198;2022-11-20T14:29:16;2.80;99.90
47162;DHT22;32921;53.256;8.198;2022-11-20T14:31:42;2.70;99.90
47162;DHT22;32921;53.256;8.198;2022-11-20T14:34:30;2.60;99.90
47162;DHT22;32921;53.256;8.198;2022-11-20T14:36:58;2.50;99.90
47162;DHT22;32921;53.256;8.198;2022-11-20T14:39:33;2.50;99.90
47162;DHT22;32921;53.256;8.198;2022-11-20T14:41:59;2.50;99.90
47162;DHT22;32921;53.256;8.198;2022-11-20T14:44:29;2.50;99.90
47162;DHT22;32921;53.256;8.198;2022-11-20T14:46:57;2.50;99.90
47162;DHT22;32921;53.256;8.198;2022-11-20T14:49:24;2.40;99.90
47162;DHT22;32921;53.256;8.198;2022-11-20T14:52:12;2.30;99.90
47162;DHT22;32921;53.256;8.198;2022-11-20T14:54:53;2.20;99.90
47162;DHT22;32921;53.256;8.198;2022-11-20T14:57:26;2.00;99.90
47162;DHT22;32921;53.256;8.198;2022-11-20T15:02:30;1.90;99.90
47162;DHT22;32921;53.256;8.198;2022-11-20T15:05:00;1.90;99.90
47162;DHT22;32921;53.256;8.198;2022-11-20T15:07:33;1.90;99.90
47162;DHT22;32921;53.256;8.198;2022-11-20T15:12:52;1.80;99.90
47162;DHT22;32921;53.256;8.198;2022-11-20T15:15:35;1.80;99.90
47162;DHT22;32921;53.256;8.198;2022-11-20T15:18:02;1.60;99.90
47162;DHT22;32921;53.256;8.198;2022-11-20T15:20:31;1.40;99.90
47162;DHT22;32921;53.256;8.198;2022-11-20T15:22:57;1.20;99.90
47162;DHT22;32921;53.256;8.198;2022-11-20T15:25:23;1.00;99.90
47162;DHT22;32921;53.256;8.198;2022-11-20T15:27:53;0.90;99.90
47162;DHT22;32921;53.256;8.198;2022-11-20T15:30:21;0.80;99.90
47162;DHT22;32921;53.256;8.198;2022-11-20T15:32:47;0.70;99.90
47162;DHT22;32921;53.256;8.198;2022-11-20T15:35:14;0.60;99.90
47162;DHT22;32921;53.256;8.198;2022-11-20T15:37:40;0.40;99.90
47162;DHT22;32921;53.256;8.198;2022-11-20T15:40:07;0.30;99.90
47162;DHT22;32921;53.256;8.198;2022-11-20T15:42:33;0.40;99.90
47162;DHT22;32921;53.256;8.198;2022-11-20T15:44:59;0.30;99.90
47162;DHT22;32921;53.256;8.198;2022-11-20T15:47:30;0.20;99.90
47162;DHT22;32921;53.256;8.198;2022-11-20T15:49:56;0.00;99.90
47162;DHT22;32921;53.256;8.198;2022-11-20T15:52:22;-0.20;99.90
47162;DHT22;32921;53.256;8.198;2022-11-20T15:54:47;-0.30;99.90
47162;DHT22;32921;53.256;8.198;2022-11-20T15:57:13;0.00;99.90
47162;DHT22;32921;53.256;8.198;2022-11-20T15:59:39;0.20;99.90
47162;DHT22;32921;53.256;8.198;2022-11-20T16:02:13;0.20;99.90
47162;DHT22;32921;53.256;8.198;2022-11-20T16:04:39;0.20;99.90
47162;DHT22;32921;53.256;8.198;2022-11-20T16:07:05;0.30;99.90
47162;DHT22;32921;53.256;8.198;2022-11-20T16:09:31;0.40;99.90
47162;DHT22;32921;53.256;8.198;2022-11-20T16:11:56;0.60;99.90
47162;DHT22;32921;53.256;8.198;2022-11-20T16:14:27;0.70;99.90
47162;DHT22;32921;53.256;8.198;2022-11-20T16:17:12;0.70;99.90
47162;DHT22;32921;53.256;8.198;2022-11-20T16:19:38;0.70;99.90
47162;DHT22;32921;53.256;8.198;2022-11-20T16:22:03;0.70;99.90
47162;DHT22;32921;53.256;8.198;2022-11-20T16:24:29;0.70;99.90
47162;DHT22;32921;53.256;8.198;2022-11-20T16:26:55;0.80;99.90
47162;DHT22;32921;53.256;8.198;2022-11-20T16:29:21;0.80;99.90
47162;DHT22;32921;53.256;8.198;2022-11-20T16:31:46;0.80;99.90
47162;DHT22;32921;53.256;8.198;2022-11-20T16:34:12;0.70;99.90
47162;DHT22;32921;53.256;8.198;2022-11-20T16:36:42;0.80;99.90
47162;DHT22;32921;53.256;8.198;2022-11-20T16:39:09;0.80;99.90
47162;DHT22;32921;53.256;8.198;2022-11-20T16:41:35;0.70;99.90
47162;DHT22;32921;53.256;8.198;2022-11-20T16:44:05;0.70;99.90
47162;DHT22;32921;53.256;8.198;2022-11-20T16:46:32;0.70;99.90
47162;DHT22;32921;53.256;8.198;2022-11-20T16:48:59;0.70;99.90
47162;DHT22;32921;53.256;8.198;2022-11-20T16:51:26;0.70;99.90
47162;DHT22;32921;53.256;8.198;2022-11-20T16:53:53;0.70;99.90
47162;DHT22;32921;53.256;8.198;2022-11-20T16:56:22;0.60;99.90
47162;DHT22;32921;53.256;8.198;2022-11-20T16:58:49;0.60;99.90
47162;DHT22;32921;53.256;8.198;2022-11-20T17:01:17;0.70;99.90
47162;DHT22;32921;53.256;8.198;2022-11-20T17:03:45;0.70;99.90
47162;DHT22;32921;53.256;8.198;2022-11-20T17:06:14;0.70;99.90
47162;DHT22;32921;53.256;8.198;2022-11-20T17:08:40;0.70;99.90
47162;DHT22;32921;53.256;8.198;2022-11-20T17:11:07;0.50;99.90
47162;DHT22;32921;53.256;8.198;2022-11-20T17:13:33;0.60;99.90
47162;DHT22;32921;53.256;8.198;2022-11-20T17:16:13;0.60;99.90
47162;DHT22;32921;53.256;8.198;2022-11-20T17:18:39;0.70;99.90
47162;DHT22;32921;53.256;8.198;2022-11-20T17:21:05;0.60;99.90
47162;DHT22;32921;53.256;8.198;2022-11-20T17:23:33;0.60;99.90
47162;DHT22;32921;53.256;8.198;2022-11-20T17:28:35;0.60;99.90
47162;DHT22;32921;53.256;8.198;2022-11-20T17:31:01;0.50;99.90